sensor_id;sensor_type;location;lat;lon;timestamp;noise_LAeq;noise_LA_min;noise_LA_max;noise_LA01;noise_LA95
58197;Laerm;43999;51.660;5.616;2023-05-14T00:00:30;50.74;38.52;63.97;;
58197;Laerm;43999;51.660;5.616;2023-05-14T00:02:57;45.18;38.95;64.50;;
58197;Laerm;43999;51.660;5.616;2023-05-14T00:05:25;51.74;38.37;67.49;;
58197;Laerm;43999;51.660;5.616;2023-05-14T00:08:02;52.95;39.58;69.53;;
58197;Laerm;43999;51.660;5.616;2023-05-14T00:10:33;50.45;38.67;66.50;;
58197;Laerm;43999;51.660;5.616;2023-05-14T00:13:00;52.52;40.80;67.32;;
58197;Laerm;43999;51.660;5.616;2023-05-14T00:15:28;51.10;39.92;70.93;;
58197;Laerm;43999;51.660;5.616;2023-05-14T00:17:56;52.83;39.34;67.28;;
58197;Laerm;43999;51.660;5.616;2023-05-14T00:20:23;53.51;37.88;72.41;;
58197;Laerm;43999;51.660;5.616;2023-05-14T00:22:51;48.84;38.05;67.19;;
58197;Laerm;43999;51.660;5.616;2023-05-14T00:25:18;52.77;38.52;69.82;;
58197;Laerm;43999;51.660;5.616;2023-05-14T00:27:48;54.81;38.37;69.35;;
58197;Laerm;43999;51.660;5.616;2023-05-14T00:30:15;48.37;37.88;63.60;;
58197;Laerm;43999;51.660;5.616;2023-05-14T00:32:42;45.39;38.21;65.80;;
58197;Laerm;43999;51.660;5.616;2023-05-14T00:35:10;50.76;37.88;69.87;;
58197;Laerm;43999;51.660;5.616;2023-05-14T00:37:38;50.43;38.05;69.58;;
58197;Laerm;43999;51.660;5.616;2023-05-14T00:40:07;55.79;38.67;67.94;;
58197;Laerm;43999;51.660;5.616;2023-05-14T00:42:36;52.91;38.67;68.41;;
58197;Laerm;43999;51.660;5.616;2023-05-14T00:45:05;57.89;38.21;72.89;;
58197;Laerm;43999;51.660;5.616;2023-05-14T00:47:32;48.30;38.05;63.49;;
58197;Laerm;43999;51.660;5.616;2023-05-14T00:50:03;49.23;38.67;64.67;;
58197;Laerm;43999;51.660;5.616;2023-05-14T00:52:31;53.90;38.52;70.43;;
58197;Laerm;43999;51.660;5.616;2023-05-14T00:54:59;51.62;38.52;68.87;;
58197;Laerm;43999;51.660;5.616;2023-05-14T00:57:29;48.25;38.81;64.84;;
58197;Laerm;43999;51.660;5.616;2023-05-14T00:59:57;47.17;38.52;62.70;;
58197;Laerm;43999;51.660;5.616;2023-05-14T01:02:25;56.09;39.92;71.89;;
58197;Laerm;43999;51.660;5.616;2023-05-14T01:04:53;53.90;37.88;68.64;;
58197;Laerm;43999;51.660;5.616;2023-05-14T01:10:20;49.69;39.21;65.10;;
58197;Laerm;43999;51.660;5.616;2023-05-14T01:13:17;49.42;38.74;62.03;;
58197;Laerm;43999;51.660;5.616;2023-05-14T01:15:48;49.81;38.87;62.87;;
58197;Laerm;43999;51.660;5.616;2023-05-14T01:18:18;63.77;38.95;82.93;;
58197;Laerm;43999;51.660;5.616;2023-05-14T01:20:49;58.37;39.08;85.55;;
58197;Laerm;43999;51.660;5.616;2023-05-14T01:23:18;47.67;39.08;65.37;;
58197;Laerm;43999;51.660;5.616;2023-05-14T01:25:46;52.27;38.52;67.98;;
58197;Laerm;43999;51.660;5.616;2023-05-14T01:28:27;53.20;39.58;67.47;;
58197;Laerm;43999;51.660;5.616;2023-05-14T01:31:16;52.82;38.95;70.22;;
58197;Laerm;43999;51.660;5.616;2023-05-14T01:33:47;45.71;37.12;63.09;;
58197;Laerm;43999;51.660;5.616;2023-05-14T01:36:21;52.50;37.70;67.30;;
58197;Laerm;43999;51.660;5.616;2023-05-14T01:38:49;54.05;39.08;69.03;;
58197;Laerm;43999;51.660;5.616;2023-05-14T01:41:19;50.67;37.70;65.82;;
58197;Laerm;43999;51.660;5.616;2023-05-14T01:43:48;52.08;37.52;68.95;;
58197;Laerm;43999;51.660;5.616;2023-05-14T01:46:18;46.63;37.88;59.00;;
58197;Laerm;43999;51.660;5.616;2023-05-14T01:48:46;48.97;38.47;63.79;;
58197;Laerm;43999;51.660;5.616;2023-05-14T01:51:13;51.33;37.70;67.27;;
58197;Laerm;43999;51.660;5.616;2023-05-14T01:53:41;51.25;38.37;68.31;;
58197;Laerm;43999;51.660;5.616;2023-05-14T01:56:08;49.07;38.37;64.84;;
58197;Laerm;43999;51.660;5.616;2023-05-14T01:58:35;43.27;38.52;60.87;;
58197;Laerm;43999;51.660;5.616;2023-05-14T02:01:03;42.42;38.52;50.02;;
58197;Laerm;43999;51.660;5.616;2023-05-14T02:03:30;49.85;38.21;67.05;;
58197;Laerm;43999;51.660;5.616;2023-05-14T02:05:57;43.08;38.37;52.11;;
58197;Laerm;43999;51.660;5.616;2023-05-14T02:08:26;52.69;39.46;70.68;;
58197;Laerm;43999;51.660;5.616;2023-05-14T02:10:54;45.97;38.67;64.26;;
58197;Laerm;43999;51.660;5.616;2023-05-14T02:13:25;43.56;37.70;61.86;;
58197;Laerm;43999;51.660;5.616;2023-05-14T02:15:52;48.16;38.37;61.61;;
58197;Laerm;43999;51.660;5.616;2023-05-14T02:18:20;49.36;38.52;64.62;;
58197;Laerm;43999;51.660;5.616;2023-05-14T02:20:47;51.30;39.70;72.02;;
58197;Laerm;43999;51.660;5.616;2023-05-14T02:23:14;47.53;38.52;64.83;;
58197;Laerm;43999;51.660;5.616;2023-05-14T02:25:43;60.26;39.92;78.30;;
58197;Laerm;43999;51.660;5.616;2023-05-14T02:28:10;45.71;38.81;59.48;;
58197;Laerm;43999;51.660;5.616;2023-05-14T02:30:38;45.97;39.46;63.56;;
58197;Laerm;43999;51.660;5.616;2023-05-14T02:33:06;47.12;39.21;61.56;;
58197;Laerm;43999;51.660;5.616;2023-05-14T02:35:33;43.37;38.99;59.17;;
58197;Laerm;43999;51.660;5.616;2023-05-14T02:38:00;44.34;38.95;58.39;;
58197;Laerm;43999;51.660;5.616;2023-05-14T02:40:28;50.30;38.52;63.99;;
58197;Laerm;43999;51.660;5.616;2023-05-14T02:42:55;42.48;39.08;51.35;;
58197;Laerm;43999;51.660;5.616;2023-05-14T02:45:23;51.30;39.34;67.08;;
58197;Laerm;43999;51.660;5.616;2023-05-14T02:47:50;47.29;38.81;59.68;;
58197;Laerm;43999;51.660;5.616;2023-05-14T02:50:17;54.16;40.13;75.19;;
58197;Laerm;43999;51.660;5.616;2023-05-14T02:52:45;49.68;40.43;67.59;;
58197;Laerm;43999;51.660;5.616;2023-05-14T02:55:12;50.31;40.33;64.29;;
58197;Laerm;43999;51.660;5.616;2023-05-14T02:57:39;52.25;40.53;66.48;;
58197;Laerm;43999;51.660;5.616;2023-05-14T03:00:07;47.99;41.06;62.54;;
58197;Laerm;43999;51.660;5.616;2023-05-14T03:02:36;50.63;40.98;65.34;;
58197;Laerm;43999;51.660;5.616;2023-05-14T03:05:04;43.97;40.98;57.73;;
58197;Laerm;43999;51.660;5.616;2023-05-14T03:07:31;48.37;40.89;59.94;;
58197;Laerm;43999;51.660;5.616;2023-05-14T03:09:59;46.44;40.53;66.47;;
58197;Laerm;43999;51.660;5.616;2023-05-14T03:12:26;49.54;41.06;63.78;;
58197;Laerm;43999;51.660;5.616;2023-05-14T03:14:54;52.29;40.89;67.90;;
58197;Laerm;43999;51.660;5.616;2023-05-14T03:17:21;49.21;41.22;62.79;;
58197;Laerm;43999;51.660;5.616;2023-05-14T03:19:49;49.49;41.14;62.98;;
58197;Laerm;43999;51.660;5.616;2023-05-14T03:22:17;44.65;40.62;58.13;;
58197;Laerm;43999;51.660;5.616;2023-05-14T03:24:44;45.11;40.13;53.57;;
58197;Laerm;43999;51.660;5.616;2023-05-14T03:27:11;52.48;40.43;65.12;;
58197;Laerm;43999;51.660;5.616;2023-05-14T03:29:39;51.06;40.13;66.18;;
58197;Laerm;43999;51.660;5.616;2023-05-14T03:32:06;49.35;39.58;67.01;;
58197;Laerm;43999;51.660;5.616;2023-05-14T03:34:33;50.04;40.53;65.56;;
58197;Laerm;43999;51.660;5.616;2023-05-14T03:37:01;48.51;40.62;60.71;;
58197;Laerm;43999;51.660;5.616;2023-05-14T03:39:28;43.81;39.21;57.17;;
58197;Laerm;43999;51.660;5.616;2023-05-14T03:41:56;53.81;39.70;70.15;;
58197;Laerm;43999;51.660;5.616;2023-05-14T03:44:25;45.75;40.62;54.54;;
58197;Laerm;43999;51.660;5.616;2023-05-14T03:46:52;53.51;40.71;68.29;;
58197;Laerm;43999;51.660;5.616;2023-05-14T03:49:19;44.05;40.13;63.79;;
58197;Laerm;43999;51.660;5.616;2023-05-14T03:51:47;49.58;38.95;63.89;;
58197;Laerm;43999;51.660;5.616;2023-05-14T03:54:14;57.73;39.81;73.13;;
58197;Laerm;43999;51.660;5.616;2023-05-14T03:56:43;44.39;40.89;63.89;;
58197;Laerm;43999;51.660;5.616;2023-05-14T03:59:10;48.91;39.92;64.69;;
58197;Laerm;43999;51.660;5.616;2023-05-14T04:01:38;55.20;40.80;70.26;;
58197;Laerm;43999;51.660;5.616;2023-05-14T04:04:05;46.11;40.43;60.51;;
58197;Laerm;43999;51.660;5.616;2023-05-14T04:06:33;45.34;40.23;64.13;;
58197;Laerm;43999;51.660;5.616;2023-05-14T04:09:02;44.73;39.81;68.62;;
58197;Laerm;43999;51.660;5.616;2023-05-14T04:11:29;52.95;40.43;70.90;;
58197;Laerm;43999;51.660;5.616;2023-05-14T04:13:58;42.92;39.21;56.11;;
58197;Laerm;43999;51.660;5.616;2023-05-14T04:16:25;47.10;39.92;64.54;;
58197;Laerm;43999;51.660;5.616;2023-05-14T04:18:53;45.04;39.58;62.20;;
58197;Laerm;43999;51.660;5.616;2023-05-14T04:21:20;50.88;40.13;68.44;;
58197;Laerm;43999;51.660;5.616;2023-05-14T04:23:47;49.99;40.71;66.06;;
58197;Laerm;43999;51.660;5.616;2023-05-14T04:26:15;45.94;40.80;55.55;;
58197;Laerm;43999;51.660;5.616;2023-05-14T04:28:43;52.40;40.53;67.20;;
58197;Laerm;43999;51.660;5.616;2023-05-14T04:31:12;43.61;39.99;52.33;;
58197;Laerm;43999;51.660;5.616;2023-05-14T04:33:39;44.28;39.70;56.00;;
58197;Laerm;43999;51.660;5.616;2023-05-14T04:36:07;50.51;40.03;66.49;;
58197;Laerm;43999;51.660;5.616;2023-05-14T04:38:35;46.64;38.81;65.18;;
58197;Laerm;43999;51.660;5.616;2023-05-14T04:41:02;49.68;40.03;63.49;;
58197;Laerm;43999;51.660;5.616;2023-05-14T04:43:29;53.91;40.03;65.54;;
58197;Laerm;43999;51.660;5.616;2023-05-14T04:45:57;50.95;40.03;63.26;;
58197;Laerm;43999;51.660;5.616;2023-05-14T04:48:24;50.28;39.81;63.71;;
58197;Laerm;43999;51.660;5.616;2023-05-14T04:50:52;54.65;39.21;67.63;;
58197;Laerm;43999;51.660;5.616;2023-05-14T04:53:19;55.21;40.03;71.55;;
58197;Laerm;43999;51.660;5.616;2023-05-14T04:55:46;47.87;40.62;60.37;;
58197;Laerm;43999;51.660;5.616;2023-05-14T04:58:14;53.72;40.62;67.99;;
58197;Laerm;43999;51.660;5.616;2023-05-14T05:00:41;49.65;40.71;65.84;;
58197;Laerm;43999;51.660;5.616;2023-05-14T05:03:09;47.95;40.43;64.59;;
58197;Laerm;43999;51.660;5.616;2023-05-14T05:05:37;46.20;40.23;68.27;;
58197;Laerm;43999;51.660;5.616;2023-05-14T05:08:04;50.66;39.58;68.50;;
58197;Laerm;43999;51.660;5.616;2023-05-14T05:10:31;56.02;41.03;70.08;;
58197;Laerm;43999;51.660;5.616;2023-05-14T05:12:59;60.20;39.34;81.15;;
58197;Laerm;43999;51.660;5.616;2023-05-14T05:15:26;54.20;40.89;65.70;;
58197;Laerm;43999;51.660;5.616;2023-05-14T05:17:54;52.87;40.23;66.12;;
58197;Laerm;43999;51.660;5.616;2023-05-14T05:20:21;46.44;39.46;58.30;;
58197;Laerm;43999;51.660;5.616;2023-05-14T05:22:49;51.10;40.33;65.76;;
58197;Laerm;43999;51.660;5.616;2023-05-14T05:25:17;44.07;38.60;55.05;;
58197;Laerm;43999;51.660;5.616;2023-05-14T05:27:44;52.34;39.58;67.37;;
58197;Laerm;43999;51.660;5.616;2023-05-14T05:30:11;49.41;39.46;72.93;;
58197;Laerm;43999;51.660;5.616;2023-05-14T05:32:39;50.97;39.34;67.25;;
58197;Laerm;43999;51.660;5.616;2023-05-14T05:35:07;50.33;39.81;65.54;;
58197;Laerm;43999;51.660;5.616;2023-05-14T05:37:34;50.39;40.43;63.91;;
58197;Laerm;43999;51.660;5.616;2023-05-14T05:40:03;48.63;38.95;70.98;;
58197;Laerm;43999;51.660;5.616;2023-05-14T05:42:32;45.93;39.08;60.34;;
58197;Laerm;43999;51.660;5.616;2023-05-14T05:44:59;45.53;39.46;58.95;;
58197;Laerm;43999;51.660;5.616;2023-05-14T05:47:27;48.77;39.34;63.08;;
58197;Laerm;43999;51.660;5.616;2023-05-14T05:49:54;56.65;40.03;78.24;;
58197;Laerm;43999;51.660;5.616;2023-05-14T05:52:21;49.28;40.33;62.71;;
58197;Laerm;43999;51.660;5.616;2023-05-14T05:54:49;52.99;40.23;67.63;;
58197;Laerm;43999;51.660;5.616;2023-05-14T05:57:16;55.95;40.53;72.50;;
58197;Laerm;43999;51.660;5.616;2023-05-14T05:59:43;56.79;39.70;75.31;;
58197;Laerm;43999;51.660;5.616;2023-05-14T06:02:20;50.09;40.43;63.48;;
58197;Laerm;43999;51.660;5.616;2023-05-14T06:04:47;51.67;39.21;65.34;;
58197;Laerm;43999;51.660;5.616;2023-05-14T06:07:15;47.07;39.58;62.09;;
58197;Laerm;43999;51.660;5.616;2023-05-14T06:09:42;53.01;40.89;65.10;;
58197;Laerm;43999;51.660;5.616;2023-05-14T06:12:09;55.41;39.34;72.13;;
58197;Laerm;43999;51.660;5.616;2023-05-14T06:14:38;43.71;38.37;54.79;;
58197;Laerm;43999;51.660;5.616;2023-05-14T06:17:05;54.65;38.81;70.93;;
58197;Laerm;43999;51.660;5.616;2023-05-14T06:19:33;45.07;39.58;59.01;;
58197;Laerm;43999;51.660;5.616;2023-05-14T06:22:00;58.05;41.53;71.16;;
58197;Laerm;43999;51.660;5.616;2023-05-14T06:24:28;51.82;40.33;68.14;;
58197;Laerm;43999;51.660;5.616;2023-05-14T06:26:56;53.30;40.43;72.26;;
58197;Laerm;43999;51.660;5.616;2023-05-14T06:29:24;51.35;41.14;65.25;;
58197;Laerm;43999;51.660;5.616;2023-05-14T06:31:51;55.43;41.46;68.59;;
58197;Laerm;43999;51.660;5.616;2023-05-14T06:34:19;51.83;43.09;63.92;;
58197;Laerm;43999;51.660;5.616;2023-05-14T06:36:47;56.71;43.77;69.78;;
58197;Laerm;43999;51.660;5.616;2023-05-14T06:39:14;60.66;41.61;77.43;;
58197;Laerm;43999;51.660;5.616;2023-05-14T06:41:41;63.50;40.98;80.77;;
58197;Laerm;43999;51.660;5.616;2023-05-14T06:44:14;51.54;40.13;65.66;;
58197;Laerm;43999;51.660;5.616;2023-05-14T06:46:41;58.80;44.35;70.28;;
58197;Laerm;43999;51.660;5.616;2023-05-14T06:49:09;58.94;42.29;71.61;;
58197;Laerm;43999;51.660;5.616;2023-05-14T06:51:36;56.83;40.89;73.00;;
58197;Laerm;43999;51.660;5.616;2023-05-14T06:54:05;60.79;42.88;75.62;;
58197;Laerm;43999;51.660;5.616;2023-05-14T06:56:32;57.10;43.29;71.98;;
58197;Laerm;43999;51.660;5.616;2023-05-14T06:58:59;57.49;42.76;73.38;;
58197;Laerm;43999;51.660;5.616;2023-05-14T07:01:27;57.74;40.13;76.55;;
58197;Laerm;43999;51.660;5.616;2023-05-14T07:03:54;57.57;41.61;71.98;;
58197;Laerm;43999;51.660;5.616;2023-05-14T07:06:22;57.11;42.47;74.40;;
58197;Laerm;43999;51.660;5.616;2023-05-14T07:08:49;59.24;43.19;70.22;;
58197;Laerm;43999;51.660;5.616;2023-05-14T07:11:17;62.30;45.77;77.01;;
58197;Laerm;43999;51.660;5.616;2023-05-14T07:13:44;59.90;43.77;74.14;;
58197;Laerm;43999;51.660;5.616;2023-05-14T07:16:11;58.10;42.35;69.41;;
58197;Laerm;43999;51.660;5.616;2023-05-14T07:18:39;56.62;41.96;70.56;;
58197;Laerm;43999;51.660;5.616;2023-05-14T07:21:07;58.54;43.14;68.34;;
58197;Laerm;43999;51.660;5.616;2023-05-14T07:23:34;65.06;50.79;87.38;;
58197;Laerm;43999;51.660;5.616;2023-05-14T07:26:06;59.83;45.01;86.52;;
58197;Laerm;43999;51.660;5.616;2023-05-14T07:28:34;60.95;45.57;76.40;;
58197;Laerm;43999;51.660;5.616;2023-05-14T07:31:01;59.13;44.54;74.69;;
58197;Laerm;43999;51.660;5.616;2023-05-14T07:33:31;60.85;43.86;74.91;;
58197;Laerm;43999;51.660;5.616;2023-05-14T07:35:58;59.56;45.94;67.76;;
58197;Laerm;43999;51.660;5.616;2023-05-14T07:38:26;59.51;46.13;70.41;;
58197;Laerm;43999;51.660;5.616;2023-05-14T07:40:53;60.26;44.73;77.87;;
58197;Laerm;43999;51.660;5.616;2023-05-14T07:43:21;61.39;44.51;76.64;;
58197;Laerm;43999;51.660;5.616;2023-05-14T07:45:48;58.08;46.97;71.75;;
58197;Laerm;43999;51.660;5.616;2023-05-14T07:48:15;61.55;50.47;84.10;;
58197;Laerm;43999;51.660;5.616;2023-05-14T07:50:43;61.41;50.18;74.20;;
58197;Laerm;43999;51.660;5.616;2023-05-14T07:53:11;60.39;46.35;72.76;;
58197;Laerm;43999;51.660;5.616;2023-05-14T07:55:38;61.77;48.05;82.99;;
58197;Laerm;43999;51.660;5.616;2023-05-14T07:58:06;62.98;50.15;78.20;;
58197;Laerm;43999;51.660;5.616;2023-05-14T08:00:33;65.84;45.42;89.10;;
58197;Laerm;43999;51.660;5.616;2023-05-14T08:03:01;57.87;44.65;68.31;;
58197;Laerm;43999;51.660;5.616;2023-05-14T08:05:28;62.20;50.36;72.57;;
58197;Laerm;43999;51.660;5.616;2023-05-14T08:07:56;59.56;46.52;70.95;;
58197;Laerm;43999;51.660;5.616;2023-05-14T08:10:23;59.20;48.83;74.47;;
58197;Laerm;43999;51.660;5.616;2023-05-14T08:12:51;61.91;48.49;72.91;;
58197;Laerm;43999;51.660;5.616;2023-05-14T08:15:20;60.42;44.83;68.70;;
58197;Laerm;43999;51.660;5.616;2023-05-14T08:17:47;62.40;49.28;74.29;;
58197;Laerm;43999;51.660;5.616;2023-05-14T08:20:14;61.69;47.57;74.62;;
58197;Laerm;43999;51.660;5.616;2023-05-14T08:22:43;62.47;49.80;80.60;;
58197;Laerm;43999;51.660;5.616;2023-05-14T08:25:13;61.98;50.74;74.29;;
58197;Laerm;43999;51.660;5.616;2023-05-14T08:27:41;68.36;49.55;89.81;;
58197;Laerm;43999;51.660;5.616;2023-05-14T08:30:09;61.10;50.75;71.49;;
58197;Laerm;43999;51.660;5.616;2023-05-14T08:32:39;61.92;51.04;73.42;;
58197;Laerm;43999;51.660;5.616;2023-05-14T08:35:07;61.94;50.01;73.07;;
58197;Laerm;43999;51.660;5.616;2023-05-14T08:37:34;60.75;46.91;69.91;;
58197;Laerm;43999;51.660;5.616;2023-05-14T08:40:02;64.38;51.40;78.40;;
58197;Laerm;43999;51.660;5.616;2023-05-14T08:42:31;62.14;46.69;72.27;;
58197;Laerm;43999;51.660;5.616;2023-05-14T08:45:04;63.30;49.71;76.76;;
58197;Laerm;43999;51.660;5.616;2023-05-14T08:47:33;61.04;46.80;69.02;;
58197;Laerm;43999;51.660;5.616;2023-05-14T08:50:04;60.14;47.57;75.43;;
58197;Laerm;43999;51.660;5.616;2023-05-14T08:52:33;61.66;47.95;82.29;;
58197;Laerm;43999;51.660;5.616;2023-05-14T08:55:06;61.18;48.48;73.08;;
58197;Laerm;43999;51.660;5.616;2023-05-14T08:57:34;60.68;49.85;71.79;;
58197;Laerm;43999;51.660;5.616;2023-05-14T09:00:05;60.88;46.20;73.73;;
58197;Laerm;43999;51.660;5.616;2023-05-14T09:02:35;62.34;47.07;75.35;;
58197;Laerm;43999;51.660;5.616;2023-05-14T09:05:03;62.25;50.74;76.96;;
58197;Laerm;43999;51.660;5.616;2023-05-14T09:07:30;64.98;52.70;80.04;;
58197;Laerm;43999;51.660;5.616;2023-05-14T09:10:00;61.61;47.42;75.12;;
58197;Laerm;43999;51.660;5.616;2023-05-14T09:12:29;60.36;44.83;70.28;;
58197;Laerm;43999;51.660;5.616;2023-05-14T09:14:57;61.94;47.00;74.70;;
58197;Laerm;43999;51.660;5.616;2023-05-14T09:17:25;61.64;48.43;74.88;;
58197;Laerm;43999;51.660;5.616;2023-05-14T09:19:57;65.85;49.51;76.43;;
58197;Laerm;43999;51.660;5.616;2023-05-14T09:22:28;62.54;47.61;75.78;;
58197;Laerm;43999;51.660;5.616;2023-05-14T09:25:07;60.53;49.18;71.57;;
58197;Laerm;43999;51.660;5.616;2023-05-14T09:27:37;61.63;47.04;75.63;;
58197;Laerm;43999;51.660;5.616;2023-05-14T09:30:11;60.78;50.51;70.15;;
58197;Laerm;43999;51.660;5.616;2023-05-14T09:32:42;64.75;46.59;90.46;;
58197;Laerm;43999;51.660;5.616;2023-05-14T09:35:24;61.45;49.44;74.55;;
58197;Laerm;43999;51.660;5.616;2023-05-14T09:37:53;61.18;47.74;74.50;;
58197;Laerm;43999;51.660;5.616;2023-05-14T09:40:23;69.57;52.30;89.77;;
58197;Laerm;43999;51.660;5.616;2023-05-14T09:42:51;60.99;47.70;73.31;;
58197;Laerm;43999;51.660;5.616;2023-05-14T09:45:19;60.33;47.00;73.65;;
58197;Laerm;43999;51.660;5.616;2023-05-14T09:47:46;62.68;50.83;75.37;;
58197;Laerm;43999;51.660;5.616;2023-05-14T09:50:14;61.88;49.36;79.23;;
58197;Laerm;43999;51.660;5.616;2023-05-14T09:52:42;61.56;49.88;75.33;;
58197;Laerm;43999;51.660;5.616;2023-05-14T09:55:09;61.85;49.45;79.18;;
58197;Laerm;43999;51.660;5.616;2023-05-14T09:57:37;63.40;51.78;76.91;;
58197;Laerm;43999;51.660;5.616;2023-05-14T10:00:05;66.54;52.89;83.17;;
58197;Laerm;43999;51.660;5.616;2023-05-14T10:02:41;61.27;47.16;71.60;;
58197;Laerm;43999;51.660;5.616;2023-05-14T10:05:11;61.11;47.76;73.11;;
58197;Laerm;43999;51.660;5.616;2023-05-14T10:07:47;64.24;49.72;75.07;;
58197;Laerm;43999;51.660;5.616;2023-05-14T10:10:19;61.45;50.86;80.51;;
58197;Laerm;43999;51.660;5.616;2023-05-14T10:13:02;64.70;52.64;76.05;;
58197;Laerm;43999;51.660;5.616;2023-05-14T10:15:39;63.07;50.97;71.11;;
58197;Laerm;43999;51.660;5.616;2023-05-14T10:18:19;67.80;52.71;86.48;;
58197;Laerm;43999;51.660;5.616;2023-05-14T10:21:18;63.72;49.56;76.39;;
58197;Laerm;43999;51.660;5.616;2023-05-14T10:23:47;61.56;49.10;71.37;;
58197;Laerm;43999;51.660;5.616;2023-05-14T10:26:16;64.26;48.36;79.35;;
58197;Laerm;43999;51.660;5.616;2023-05-14T10:28:45;61.75;52.35;75.45;;
58197;Laerm;43999;51.660;5.616;2023-05-14T10:31:12;63.02;47.42;73.65;;
58197;Laerm;43999;51.660;5.616;2023-05-14T10:33:48;64.22;53.18;76.75;;
58197;Laerm;43999;51.660;5.616;2023-05-14T10:36:17;60.46;51.62;73.47;;
58197;Laerm;43999;51.660;5.616;2023-05-14T10:38:46;63.93;53.61;79.91;;
58197;Laerm;43999;51.660;5.616;2023-05-14T10:41:15;67.43;50.36;84.32;;
58197;Laerm;43999;51.660;5.616;2023-05-14T10:43:44;62.41;50.63;77.49;;
58197;Laerm;43999;51.660;5.616;2023-05-14T10:46:13;64.71;48.25;79.20;;
58197;Laerm;43999;51.660;5.616;2023-05-14T10:48:43;60.49;47.26;72.68;;
58197;Laerm;43999;51.660;5.616;2023-05-14T10:51:11;65.62;55.73;80.04;;
58197;Laerm;43999;51.660;5.616;2023-05-14T10:53:41;61.61;49.78;72.45;;
58197;Laerm;43999;51.660;5.616;2023-05-14T10:56:12;61.83;47.24;73.67;;
58197;Laerm;43999;51.660;5.616;2023-05-14T10:58:43;63.52;54.20;75.61;;
58197;Laerm;43999;51.660;5.616;2023-05-14T11:01:12;62.86;53.56;74.84;;
58197;Laerm;43999;51.660;5.616;2023-05-14T11:03:43;65.63;52.92;88.38;;
58197;Laerm;43999;51.660;5.616;2023-05-14T11:06:14;66.30;48.60;82.25;;
58197;Laerm;43999;51.660;5.616;2023-05-14T11:08:43;62.09;48.00;76.24;;
58197;Laerm;43999;51.660;5.616;2023-05-14T11:11:13;61.47;51.77;70.27;;
58197;Laerm;43999;51.660;5.616;2023-05-14T11:13:42;65.17;51.26;80.83;;
58197;Laerm;43999;51.660;5.616;2023-05-14T11:16:11;62.79;52.36;75.10;;
58197;Laerm;43999;51.660;5.616;2023-05-14T11:19:01;62.46;47.34;73.98;;
58197;Laerm;43999;51.660;5.616;2023-05-14T11:21:30;62.54;50.37;75.79;;
58197;Laerm;43999;51.660;5.616;2023-05-14T11:24:00;65.75;52.77;82.60;;
58197;Laerm;43999;51.660;5.616;2023-05-14T11:26:30;67.04;47.32;87.20;;
58197;Laerm;43999;51.660;5.616;2023-05-14T11:28:58;63.57;47.96;85.27;;
58197;Laerm;43999;51.660;5.616;2023-05-14T11:31:29;67.10;49.21;88.83;;
58197;Laerm;43999;51.660;5.616;2023-05-14T11:34:06;62.87;50.23;85.68;;
58197;Laerm;43999;51.660;5.616;2023-05-14T11:36:39;63.08;53.63;74.00;;
58197;Laerm;43999;51.660;5.616;2023-05-14T11:39:18;63.40;51.44;86.35;;
58197;Laerm;43999;51.660;5.616;2023-05-14T11:41:47;71.50;53.21;92.78;;
58197;Laerm;43999;51.660;5.616;2023-05-14T11:44:19;62.36;50.33;74.81;;
58197;Laerm;43999;51.660;5.616;2023-05-14T11:46:56;75.07;49.85;100.23;;
58197;Laerm;43999;51.660;5.616;2023-05-14T11:49:43;63.80;49.19;79.28;;
58197;Laerm;43999;51.660;5.616;2023-05-14T11:52:26;64.27;53.52;81.05;;
58197;Laerm;43999;51.660;5.616;2023-05-14T11:54:56;63.62;48.29;74.72;;
58197;Laerm;43999;51.660;5.616;2023-05-14T11:57:30;63.11;51.33;75.52;;
58197;Laerm;43999;51.660;5.616;2023-05-14T12:00:19;61.94;50.02;83.53;;
58197;Laerm;43999;51.660;5.616;2023-05-14T12:03:02;62.26;52.48;71.21;;
58197;Laerm;43999;51.660;5.616;2023-05-14T12:05:55;66.50;52.88;85.60;;
58197;Laerm;43999;51.660;5.616;2023-05-14T12:08:31;66.43;50.27;87.03;;
58197;Laerm;43999;51.660;5.616;2023-05-14T12:11:00;62.54;49.95;77.86;;
58197;Laerm;43999;51.660;5.616;2023-05-14T12:13:31;63.17;54.84;71.93;;
58197;Laerm;43999;51.660;5.616;2023-05-14T12:16:01;62.85;52.04;73.35;;
58197;Laerm;43999;51.660;5.616;2023-05-14T12:18:39;65.81;52.52;86.82;;
58197;Laerm;43999;51.660;5.616;2023-05-14T12:21:08;62.76;48.91;77.90;;
58197;Laerm;43999;51.660;5.616;2023-05-14T12:23:41;59.94;44.65;73.22;;
58197;Laerm;43999;51.660;5.616;2023-05-14T12:26:12;61.67;51.64;75.50;;
58197;Laerm;43999;51.660;5.616;2023-05-14T12:28:47;61.15;50.02;71.84;;
58197;Laerm;43999;51.660;5.616;2023-05-14T12:31:56;65.38;53.06;83.47;;
58197;Laerm;43999;51.660;5.616;2023-05-14T12:34:36;62.08;49.18;73.88;;
58197;Laerm;43999;51.660;5.616;2023-05-14T12:37:05;64.46;54.69;82.24;;
58197;Laerm;43999;51.660;5.616;2023-05-14T12:39:35;62.21;49.85;76.94;;
58197;Laerm;43999;51.660;5.616;2023-05-14T12:42:04;63.33;53.15;70.83;;
58197;Laerm;43999;51.660;5.616;2023-05-14T12:44:42;66.16;51.23;83.93;;
58197;Laerm;43999;51.660;5.616;2023-05-14T12:47:12;63.33;51.77;77.33;;
58197;Laerm;43999;51.660;5.616;2023-05-14T12:49:50;65.14;54.19;77.99;;
58197;Laerm;43999;51.660;5.616;2023-05-14T12:52:17;69.00;55.46;87.11;;
58197;Laerm;43999;51.660;5.616;2023-05-14T12:55:04;62.74;50.24;76.98;;
58197;Laerm;43999;51.660;5.616;2023-05-14T12:57:31;62.51;50.03;74.25;;
58197;Laerm;43999;51.660;5.616;2023-05-14T13:00:02;65.18;50.87;84.39;;
58197;Laerm;43999;51.660;5.616;2023-05-14T13:02:34;62.35;50.37;76.25;;
58197;Laerm;43999;51.660;5.616;2023-05-14T13:05:11;63.11;49.30;75.10;;
58197;Laerm;43999;51.660;5.616;2023-05-14T13:07:38;59.31;47.28;71.25;;
58197;Laerm;43999;51.660;5.616;2023-05-14T13:10:08;65.50;51.83;77.99;;
58197;Laerm;43999;51.660;5.616;2023-05-14T13:12:36;62.99;45.30;78.30;;
58197;Laerm;43999;51.660;5.616;2023-05-14T13:15:05;66.20;49.24;83.93;;
58197;Laerm;43999;51.660;5.616;2023-05-14T13:17:33;64.55;50.59;80.20;;
58197;Laerm;43999;51.660;5.616;2023-05-14T13:20:00;61.88;48.46;78.15;;
58197;Laerm;43999;51.660;5.616;2023-05-14T13:22:28;68.36;51.42;98.07;;
58197;Laerm;43999;51.660;5.616;2023-05-14T13:24:55;62.82;50.46;74.52;;
58197;Laerm;43999;51.660;5.616;2023-05-14T13:27:23;66.66;51.88;81.20;;
58197;Laerm;43999;51.660;5.616;2023-05-14T13:29:50;61.63;54.29;75.98;;
58197;Laerm;43999;51.660;5.616;2023-05-14T13:32:18;65.20;54.14;79.12;;
58197;Laerm;43999;51.660;5.616;2023-05-14T13:34:45;63.37;51.77;74.43;;
58197;Laerm;43999;51.660;5.616;2023-05-14T13:37:13;64.62;51.59;78.47;;
58197;Laerm;43999;51.660;5.616;2023-05-14T13:39:40;65.53;51.70;87.94;;
58197;Laerm;43999;51.660;5.616;2023-05-14T13:42:07;65.56;53.42;83.79;;
58197;Laerm;43999;51.660;5.616;2023-05-14T13:44:35;64.30;49.73;77.95;;
58197;Laerm;43999;51.660;5.616;2023-05-14T13:47:03;63.79;45.07;78.52;;
58197;Laerm;43999;51.660;5.616;2023-05-14T13:49:30;62.45;47.10;73.56;;
58197;Laerm;43999;51.660;5.616;2023-05-14T13:51:58;64.55;45.75;81.52;;
58197;Laerm;43999;51.660;5.616;2023-05-14T13:54:25;65.50;53.81;78.23;;
58197;Laerm;43999;51.660;5.616;2023-05-14T13:56:53;63.96;51.91;78.53;;
58197;Laerm;43999;51.660;5.616;2023-05-14T13:59:21;63.00;47.57;76.69;;